Aérodrome :
LOGIN :

S'inscrire | Disclaimer

   EN    FR    IT 

 










Légende :    VFR   VFR Marginal   IFR   IFR Intensif   IFR Très Intensif
Visi : 
Plafond : 
>= 8 km
>= 3000ft
5 à 8 km
1000 à 3000 ft
1500m à 5 km
500 à 1000 ft
800 à 1500m
200 à 500 ft
< 800m
< 200 ft
Symboles :   Orages  Brouillard  Fortes neiges  Fortes précipitations  Vent > 20 kt
SIGMETs :   Divers  Orages  Givrage  Turbulence  Onde Orograph.  Cendres Volcan.






- Altitude de l'aérodrome : 265 ft


ETSH - Holzdorf AB

DERNIER METAR :
  • 291120Z 25020G30KT 9999 VCSH FEW030 BKN050 06/00 Q1002 BLU BLU TEMPO YLO

METARs EXPIRÉS :
  • 291020Z 25022G32KT 9999 FEW022 SCT030 BKN050 05/00 Q1002 BLU BLU TEMPO GRN

TAF TAF ETSH
Valide du 29 à 12h jusqu'au 29 à 21h UTC


291124Z 2912/2921 24015G25KT 9999 NSW SCT020 BKN040
TEMPO 2912/2921 25020G30KT 3000 SHRAGS SCT010 BKN015CB



MET'MAP, la Météo Aéronautique d'un coup d'oeil ! - Copyright ORBIFLY Décembre 2007 - Disclaimer

ORBIFLY MET'MAP TEAM :

Programmation & Développement : Alexandra Zaïnal
Sur une idée originale de : Baudouin d'Aumeries
Assistance à la programmation : Marc-Olivier Méhu
Soutien technique & logistique : Manuel Goepfert

Contact : metmap@orbifly.com




SOURCES & CREDITS :

   NOAA